Willow Grove, PA

3:09 AM EDT on October 24, 2014 (GMT -0400)
Fitzwatertown | Change Station
CLOSE
Current Station
Personal Weather Station
Location: Willow Grove, PA
Elevation: 295 ft
Nearby Weather Stations

Elev 295 ft 40.15 °N, 75.13 °W | Updated 14 minutes ago

Partly Cloudy
Partly Cloudy
52.9 °F
Feels Like 52.9 °F
N
1.0
Wind Variable Wind from NW
Gusts 6.0 mph

Today
High -- | Low -- °F
--% Chance of Precip.
Yesterday
High -- | Low -- °F
Precip. -- in
7:20 AM 6:07 PM
New Moon, 0% visible
Pressure 29.83 in
Visibility 10.0 miles
Clouds Clear
Dew Point 47 °F
Humidity 80%
Rainfall 0.00 in
Snow Depth Not available.
UV 0 out of 12
Pollen .10 out of 12
Air Quality Not available.
Flu Activity Sporadic
METAR KPNE 240654Z 34008KT 10SM CLR 12/06 A2983 RMK AO2 SLP099 T01220061 $

More Conditions Fewer Conditions

Pressure 29.83 in
Visibility 10.0 miles
Clouds Clear
Dew Point 47 °F
Humidity 80%
Rainfall 0.00 in
Snow Depth Not available.
UV 0 out of 12
Pollen .10 out of 12
Air Quality Not available.
Flu Activity Sporadic
METAR KPNE 240654Z 34008KT 10SM CLR 12/06 A2983 RMK AO2 SLP099 T01220061 $

More Conditions Fewer Conditions

10-Day Weather Forecast

Almanac

Astronomy

Oct. 24, 2014 Rise Set
Actual Time 7:20 AM EDT 6:07 PM EDT
Civil Twilight 6:53 AM EDT 6:35 PM EDT
Nautical Twilight 6:21 AM EDT 7:07 PM EDT
Astronomical Twilight 5:49 AM EDT 7:38 PM EDT
Moon 7:57 AM EDT 6:46 PM EDT
Length of Visible Light 11h 42m
Length of Day
10h 47m
Tomorrow will be 2m 27s shorter.
New Moon, 0% of the Moon is Illuminated
Today
New Moon
Oct 30
First Quarter
Nov 6
Full
Nov 14
Last Quarter
Nov 22
New

Today's Extremes

State Highs State Lows

Community

WunderPhotos

Upload Photos

1,764,510 photos uploaded!

WunderBlogs® & News

Nearby

Snow Depth

Station Depth Elevation
No new snow has been reported.

Earthquake Activity

City Distance Mag. Time & Date
No recent earthquake activity has been reported nearby.
Minimum magnitude displayed is 2.5.

Coastal Water Temperatures

Place Temperature
No Stations Reporting

Nearby Weather Stations